Time;durP1;ratioP1;P1;durP2;ratioP2;P2;SDS_P1;SDS_P2;PMS_P1;PMS_P2;Temp;Humidity;BMP_temperature;BMP_pressure;BME280_temperature;BME280_humidity;BME280_pressure;Samples;Min_cycle;Max_cycle;Signal;HPM_P1;HPM_P2
2023/01/14 00:05:02;;;;;;;11.70;5.40;;;;;;;6.69;88.14;100100.63;107371;1259;93100;-50
2023/01/14 00:07:49;;;;;;;10.30;5.70;;;;;;;6.66;88.20;100104.73;107390;1259;80989;-52
2023/01/14 00:10:31;;;;;;;11.10;5.40;;;;;;;6.65;88.17;100105.00;107463;1256;83372;-53
2023/01/14 00:13:13;;;;;;;10.50;5.30;;;;;;;6.63;88.24;100106.11;107395;1255;99234;-53
2023/01/14 00:15:59;;;;;;;10.50;5.60;;;;;;;6.67;88.09;100108.89;107470;1255;88553;-52
2023/01/14 00:18:37;;;;;;;9.90;5.60;;;;;;;6.67;88.14;100108.11;107429;1255;94096;-52
2023/01/14 00:21:22;;;;;;;10.00;5.30;;;;;;;6.65;87.98;100109.48;107430;1257;82938;-55
2023/01/14 00:24:04;;;;;;;9.30;5.30;;;;;;;6.63;87.78;100109.19;107436;1256;83024;-55
2023/01/14 00:26:39;;;;;;;9.30;5.30;;;;;;;6.60;87.78;100110.05;107441;1257;96818;-52
2023/01/14 00:29:21;;;;;;;8.10;5.30;;;;;;;6.61;87.75;100119.60;107433;1256;88851;-52
2023/01/14 00:32:03;;;;;;;10.70;5.90;;;;;;;6.61;87.68;100122.45;107423;1254;96250;-53
2023/01/14 00:34:46;;;;;;;8.00;5.20;;;;;;;6.62;87.66;100122.86;107397;1256;81985;-56
2023/01/14 00:37:28;;;;;;;10.30;5.80;;;;;;;6.65;87.65;100126.97;107494;1256;82841;-56
2023/01/14 00:40:10;;;;;;;11.20;6.00;;;;;;;6.67;87.61;100125.48;107448;1259;97239;-50
2023/01/14 00:42:45;;;;;;;12.10;5.30;;;;;;;6.67;87.49;100129.05;107431;1256;87579;-54
2023/01/14 00:45:23;;;;;;;8.70;5.90;;;;;;;6.69;87.36;100132.47;107424;1259;94812;-53
2023/01/14 00:48:02;;;;;;;10.70;5.50;;;;;;;6.67;87.46;100133.39;107416;1256;82501;-52
2023/01/14 00:50:42;;;;;;;10.20;6.30;;;;;;;6.65;87.50;100140.73;107437;1257;82898;-55
2023/01/14 00:53:23;;;;;;;9.40;5.60;;;;;;;6.63;87.42;100146.67;107413;1258;99721;-55
2023/01/14 00:56:01;;;;;;;9.80;5.50;;;;;;;6.61;87.37;100149.83;107453;1259;88352;-55
2023/01/14 00:58:41;;;;;;;10.40;5.90;;;;;;;6.59;87.33;100153.30;107456;1255;93248;-54
2023/01/14 01:01:24;;;;;;;8.30;5.30;;;;;;;6.57;87.29;100158.45;107427;1259;82331;-53
2023/01/14 01:04:07;;;;;;;9.10;5.20;;;;;;;6.56;87.17;100152.88;107431;1254;79724;-52
2023/01/14 01:06:45;;;;;;;9.70;5.60;;;;;;;6.52;87.20;100157.26;107444;1256;98810;-53
2023/01/14 01:09:23;;;;;;;11.00;5.80;;;;;;;6.49;87.09;100158.96;107437;1257;87062;-52
2023/01/14 01:12:06;;;;;;;8.70;5.20;;;;;;;6.46;87.10;100164.51;107414;1259;93874;-56
2023/01/14 01:14:47;;;;;;;11.40;5.40;;;;;;;6.45;87.15;100168.95;107441;1259;81441;-55
2023/01/14 01:17:22;;;;;;;8.30;5.30;;;;;;;6.45;86.99;100170.51;107443;1259;82115;-56
2023/01/14 01:19:57;;;;;;;10.20;6.20;;;;;;;6.45;87.08;100165.64;107471;1254;98016;-51
2023/01/14 01:22:34;;;;;;;9.10;5.80;;;;;;;6.49;86.99;100166.15;107432;1254;87713;-52
2023/01/14 01:25:11;;;;;;;11.50;6.20;;;;;;;6.48;87.02;100164.24;107437;1257;93778;-54
2023/01/14 01:27:51;;;;;;;12.40;5.50;;;;;;;6.49;86.87;100165.73;107423;1258;79142;-54
2023/01/14 01:30:40;;;;;;;9.90;5.30;;;;;;;6.44;86.78;100163.34;107440;1255;82074;-53
2023/01/14 01:33:20;;;;;;;10.00;4.90;;;;;;;6.42;86.79;100162.63;107417;1257;98727;-54
2023/01/14 01:36:08;;;;;;;8.90;5.40;;;;;;;6.36;86.69;100161.65;107413;1256;88319;-54
2023/01/14 01:38:47;;;;;;;12.20;6.40;;;;;;;6.31;86.71;100161.86;107408;1259;94808;-54
2023/01/14 01:41:28;;;;;;;9.10;5.20;;;;;;;6.28;86.76;100167.20;107496;1255;80685;-56
2023/01/14 01:44:30;;;;;;;10.60;5.20;;;;;;;6.29;86.83;100168.52;107451;1259;83445;-56
2023/01/14 01:47:11;;;;;;;8.10;5.00;;;;;;;6.32;86.62;100166.07;107437;1259;97483;-56
2023/01/14 01:49:51;;;;;;;7.20;5.10;;;;;;;6.30;86.80;100167.52;107438;1255;88378;-56
2023/01/14 01:52:33;;;;;;;9.90;4.90;;;;;;;6.29;86.74;100169.74;107446;1254;95200;-56
2023/01/14 01:55:19;;;;;;;8.00;5.10;;;;;;;6.31;86.87;100167.59;107445;1259;79294;-52
2023/01/14 01:57:58;;;;;;;9.30;5.40;;;;;;;6.39;86.67;100173.30;107441;1254;82964;-52
2023/01/14 02:00:38;;;;;;;7.70;4.60;;;;;;;6.42;86.69;100174.77;107470;1254;97498;-52
2023/01/14 02:03:21;;;;;;;7.90;4.50;;;;;;;6.44;86.62;100174.20;107433;1254;86877;-53
2023/01/14 02:06:07;;;;;;;10.40;5.80;;;;;;;6.48;86.61;100175.67;107420;1259;94012;-52
2023/01/14 02:08:55;;;;;;;9.50;4.90;;;;;;;6.55;86.39;100171.58;107412;1258;80354;-52
2023/01/14 02:12:05;;;;;;;9.10;5.20;;;;;;;6.56;86.39;100177.52;107407;1259;81069;-53
2023/01/14 02:15:04;;;;;;;9.10;5.40;;;;;;;6.56;86.26;100172.51;107431;1255;97871;-53
2023/01/14 02:17:57;;;;;;;10.90;5.60;;;;;;;6.48;86.22;100180.77;107408;1258;88888;-52
2023/01/14 02:20:44;;;;;;;11.10;5.50;;;;;;;6.47;86.29;100178.20;107425;1259;94983;-56
2023/01/14 02:23:53;;;;;;;;;;;;;;;6.45;86.24;100181.66;107452;1254;80886;-56
2023/01/14 02:27:22;;;;;;;8.70;5.20;;;;;;;6.42;86.16;100186.91;107277;1254;81474;-54
2023/01/14 02:30:27;;;;;;;9.80;5.30;;;;;;;6.31;86.02;100190.30;107442;1259;97052;-53
2023/01/14 02:33:22;;;;;;;9.20;5.30;;;;;;;6.21;85.87;100190.89;107366;1254;89399;-52
2023/01/14 02:36:14;;;;;;;9.10;5.40;;;;;;;6.14;85.93;100194.87;107410;1259;95001;-54
2023/01/14 02:38:59;;;;;;;9.60;5.20;;;;;;;6.07;86.11;100196.94;107418;1258;83021;-54
2023/01/14 02:45:03;;;;;;;9.70;5.30;;;;;;;6.06;86.21;100209.01;107015;1263;98460;-51
2023/01/14 02:47:43;;;;;;;10.10;4.50;;;;;;;6.04;86.21;100211.05;107429;1259;88719;-52
2023/01/14 02:50:21;;;;;;;10.50;5.40;;;;;;;6.00;86.31;100212.84;107470;1254;94826;-53
2023/01/14 02:52:57;;;;;;;9.20;5.20;;;;;;;5.92;86.30;100208.85;107438;1254;80869;-51
2023/01/14 02:55:41;;;;;;;11.50;5.10;;;;;;;5.85;86.36;100209.42;107379;1260;81889;-57
2023/01/14 02:58:58;;;;;;;9.70;5.70;;;;;;;5.83;86.54;100208.83;107447;1255;98955;-56
2023/01/14 03:02:03;;;;;;;9.90;5.00;;;;;;;5.81;86.60;100214.74;107426;1259;88758;-53
2023/01/14 03:04:57;;;;;;;9.80;5.70;;;;;;;5.78;86.54;100213.61;107407;1259;95556;-52
2023/01/14 03:07:44;;;;;;;8.10;4.80;;;;;;;5.74;86.57;100221.20;107401;1254;81513;-52
2023/01/14 03:10:31;;;;;;;12.70;5.50;;;;;;;5.71;86.71;100221.27;107456;1259;81977;-52
2023/01/14 03:13:15;;;;;;;8.30;5.30;;;;;;;5.69;86.98;100220.81;107417;1258;99177;-52
2023/01/14 03:16:02;;;;;;;9.10;6.00;;;;;;;5.68;87.02;100224.63;107280;1255;88777;-54
2023/01/14 03:18:51;;;;;;;11.30;5.60;;;;;;;5.70;86.96;100222.99;107408;1255;95513;-54
2023/01/14 03:21:35;;;;;;;8.60;5.20;;;;;;;5.76;87.15;100222.23;107338;1259;82520;-56
2023/01/14 03:24:20;;;;;;;8.30;5.40;;;;;;;5.75;87.05;100223.81;107432;1259;82077;-54
2023/01/14 03:27:02;;;;;;;9.30;5.30;;;;;;;5.66;87.10;100224.52;107428;1258;97374;-53
2023/01/14 03:29:50;;;;;;;8.40;5.20;;;;;;;5.64;87.17;100230.61;107433;1255;87233;-52
2023/01/14 03:32:39;;;;;;;10.60;5.40;;;;;;;5.60;87.12;100235.91;107439;1254;93655;-53
2023/01/14 03:35:23;;;;;;;9.50;5.50;;;;;;;5.56;86.99;100244.20;107414;1259;82107;-53
2023/01/14 03:38:10;;;;;;;9.40;5.20;;;;;;;5.51;87.24;100241.47;107442;1254;82364;-52
2023/01/14 03:40:54;;;;;;;8.70;5.20;;;;;;;5.45;87.18;100253.02;107462;1254;98827;-50
2023/01/14 03:43:42;;;;;;;9.40;5.20;;;;;;;5.40;87.36;100258.79;107427;1259;89027;-52
2023/01/14 03:46:30;;;;;;;9.10;5.10;;;;;;;5.36;87.29;100263.23;107354;1254;94428;-52
2023/01/14 03:49:08;;;;;;;10.60;5.20;;;;;;;5.34;87.26;100261.84;107410;1254;80639;-52
2023/01/14 03:51:59;;;;;;;9.30;4.90;;;;;;;5.31;87.17;100268.05;107462;1254;80811;-54
2023/01/14 03:54:44;;;;;;;8.50;5.10;;;;;;;5.29;87.28;100269.11;107411;1258;98766;-52
2023/01/14 03:57:39;;;;;;;10.30;5.30;;;;;;;5.27;87.28;100268.23;107423;1254;87100;-51
2023/01/14 04:00:42;;;;;;;9.10;4.90;;;;;;;5.21;87.27;100270.17;107428;1254;93883;-52
2023/01/14 04:03:19;;;;;;;8.80;4.90;;;;;;;5.17;87.33;100268.84;107322;1257;81593;-52
2023/01/14 04:05:59;;;;;;;9.80;4.90;;;;;;;5.05;87.26;100272.35;107303;1257;83420;-54
2023/01/14 04:08:36;;;;;;;9.70;5.00;;;;;;;5.01;87.42;100271.61;107286;1257;97283;-55
2023/01/14 04:11:16;;;;;;;8.50;4.50;;;;;;;4.97;87.42;100274.45;107334;1257;88335;-54
2023/01/14 04:16:45;;;;;;;8.20;4.10;;;;;;;4.95;87.47;100280.60;107312;1257;80250;-53
2023/01/14 04:19:26;;;;;;;10.90;4.40;;;;;;;4.90;87.53;100282.36;107339;1260;81663;-54
2023/01/14 04:22:08;;;;;;;9.00;4.50;;;;;;;4.85;87.48;100284.95;107370;1260;96391;-56
2023/01/14 04:24:57;;;;;;;7.60;4.30;;;;;;;4.85;87.71;100290.70;107335;1260;88390;-56
2023/01/14 04:27:48;;;;;;;7.20;4.00;;;;;;;4.86;87.78;100291.14;107269;1258;95535;-55
2023/01/14 04:30:32;;;;;;;10.30;4.40;;;;;;;4.87;87.71;100289.63;107267;1260;82785;-52
2023/01/14 04:33:10;;;;;;;10.60;4.90;;;;;;;4.91;87.64;100293.15;107336;1256;82936;-52
2023/01/14 04:35:48;;;;;;;7.80;4.30;;;;;;;4.94;87.73;100291.00;107320;1257;99207;-52
2023/01/14 04:38:24;;;;;;;8.20;4.20;;;;;;;4.95;87.85;100296.80;107252;1258;88609;-53
2023/01/14 04:41:02;;;;;;;7.50;4.00;;;;;;;4.96;87.63;100297.38;107072;1260;94959;-51
2023/01/14 04:43:45;;;;;;;8.30;3.90;;;;;;;5.05;87.61;100295.63;107278;1257;80860;-52
2023/01/14 04:46:27;;;;;;;7.70;4.10;;;;;;;5.07;87.78;100293.98;107360;1260;81219;-53
2023/01/14 04:49:04;;;;;;;6.90;3.50;;;;;;;5.08;87.81;100299.03;107187;1260;97803;-50
2023/01/14 04:51:45;;;;;;;10.30;4.40;;;;;;;5.12;87.76;100302.58;107263;1257;88061;-54
2023/01/14 04:54:24;;;;;;;7.60;4.00;;;;;;;5.17;87.79;100308.41;107319;1257;95806;-55
2023/01/14 04:57:08;;;;;;;9.90;4.20;;;;;;;5.21;87.70;100307.09;107278;1260;81296;-51
2023/01/14 04:59:45;;;;;;;8.00;4.90;;;;;;;5.27;87.76;100306.50;107332;1257;83065;-52
2023/01/14 05:02:23;;;;;;;6.60;3.50;;;;;;;5.31;87.47;100303.89;107292;1259;97767;-52
2023/01/14 05:04:59;;;;;;;6.40;3.60;;;;;;;5.35;87.54;100303.88;107229;1256;88351;-54
2023/01/14 05:07:32;;;;;;;;;;;;;;;5.42;87.51;100307.83;107354;1257;95860;-56
2023/01/14 05:10:12;;;;;;;7.90;3.70;;;;;;;5.42;87.52;100309.23;107356;1257;81740;-53
2023/01/14 05:12:57;;;;;;;5.60;3.70;;;;;;;5.46;87.29;100312.36;107329;1260;83297;-52
2023/01/14 05:15:43;;;;;;;8.70;3.60;;;;;;;5.45;87.41;100315.15;107289;1257;97533;-55
2023/01/14 05:18:20;;;;;;;12.00;3.80;;;;;;;5.50;87.26;100322.34;107329;1257;88596;-56
2023/01/14 05:21:27;;;;;;;8.20;3.70;;;;;;;5.55;87.10;100322.88;107337;1257;95008;-54
2023/01/14 05:24:07;;;;;;;9.00;3.50;;;;;;;5.56;86.87;100325.65;107220;1257;81561;-55
2023/01/14 05:26:44;;;;;;;11.60;3.90;;;;;;;5.54;87.06;100328.02;107309;1258;81340;-53
2023/01/14 05:29:30;;;;;;;7.80;3.70;;;;;;;5.58;86.89;100329.71;107290;1257;97493;-52
2023/01/14 05:32:12;;;;;;;8.80;3.80;;;;;;;5.63;86.87;100335.44;107351;1257;87292;-53
2023/01/14 05:34:54;;;;;;;8.80;3.70;;;;;;;5.65;86.78;100338.80;107318;1256;94523;-55
2023/01/14 05:37:37;;;;;;;7.90;3.50;;;;;;;5.67;86.58;100342.90;107299;1257;80710;-55
2023/01/14 05:40:21;;;;;;;7.70;3.40;;;;;;;5.67;86.76;100343.73;107325;1256;81285;-55
2023/01/14 05:46:04;;;;;;;8.10;3.70;;;;;;;5.65;86.67;100350.80;107301;1258;87915;-57
2023/01/14 05:48:42;;;;;;;6.10;2.90;;;;;;;5.57;86.65;100354.83;107319;1257;95355;-54
2023/01/14 05:51:20;;;;;;;7.10;3.70;;;;;;;5.55;86.57;100353.41;107330;1260;77437;-52
2023/01/14 05:54:02;;;;;;;8.00;3.30;;;;;;;5.47;86.56;100355.20;107115;1257;82152;-52
2023/01/14 05:56:48;;;;;;;7.80;3.40;;;;;;;5.36;86.65;100356.57;107111;1256;97851;-55
2023/01/14 05:59:27;;;;;;;6.20;2.90;;;;;;;5.31;86.60;100362.69;107398;1256;87613;-55
2023/01/14 06:08:15;;;;;;;6.60;2.90;;;;;;;5.25;86.84;100377.62;107323;1257;82350;-52
2023/01/14 06:10:59;;;;;;;7.80;2.60;;;;;;;5.31;86.97;100379.94;107293;1257;97888;-55
2023/01/14 06:13:39;;;;;;;7.10;3.10;;;;;;;5.37;86.97;100375.06;107312;1257;89574;-56
2023/01/14 06:16:22;;;;;;;6.20;3.50;;;;;;;5.47;87.18;100374.79;107278;1257;94951;-54
2023/01/14 06:19:07;;;;;;;6.20;2.80;;;;;;;5.52;87.08;100379.08;107270;1256;79497;-55
2023/01/14 06:21:49;;;;;;;6.80;3.10;;;;;;;5.55;87.10;100379.70;107267;1256;83124;-54
2023/01/14 06:24:26;;;;;;;6.30;3.00;;;;;;;5.61;86.79;100384.98;107286;1255;97498;-54
2023/01/14 06:27:03;;;;;;;6.20;2.90;;;;;;;5.62;86.75;100384.14;107214;1257;89086;-52
2023/01/14 06:29:41;;;;;;;6.70;3.00;;;;;;;5.67;86.77;100387.80;107201;1260;94843;-52
2023/01/14 06:32:19;;;;;;;5.90;2.50;;;;;;;5.69;86.72;100389.08;107282;1257;82272;-58
2023/01/14 06:35:03;;;;;;;8.70;2.70;;;;;;;5.73;86.57;100389.54;107353;1257;82749;-52
2023/01/14 06:37:54;;;;;;;8.70;2.70;;;;;;;5.77;86.69;100387.55;107328;1256;98554;-52
2023/01/14 06:40:29;;;;;;;9.60;3.10;;;;;;;5.83;86.58;100391.05;107370;1259;88740;-53
2023/01/14 06:43:14;;;;;;;5.90;2.70;;;;;;;5.84;86.67;100389.35;107340;1256;94032;-52
2023/01/14 06:45:56;;;;;;;7.00;2.80;;;;;;;5.88;86.44;100389.48;107336;1259;78381;-55
2023/01/14 06:48:35;;;;;;;6.80;2.50;;;;;;;5.89;86.49;100390.60;107358;1257;80701;-55
2023/01/14 06:51:17;;;;;;;4.40;2.50;;;;;;;5.90;86.29;100391.45;107314;1257;98957;-52
2023/01/14 06:54:00;;;;;;;6.80;3.00;;;;;;;5.92;86.39;100390.88;107298;1256;88627;-52
2023/01/14 06:56:36;;;;;;;7.70;2.80;;;;;;;5.96;86.21;100394.21;107286;1256;93765;-52
2023/01/14 06:59:16;;;;;;;9.10;2.90;;;;;;;5.99;86.18;100397.05;107307;1255;82753;-52
2023/01/14 07:02:17;;;;;;;7.70;2.90;;;;;;;6.04;86.00;100398.20;107294;1257;83311;-52
2023/01/14 07:04:57;;;;;;;5.90;2.90;;;;;;;6.06;86.04;100400.10;107279;1259;97418;-54
2023/01/14 07:07:34;;;;;;;6.60;2.90;;;;;;;6.11;85.99;100406.54;107146;1260;89980;-54
2023/01/14 07:10:15;;;;;;;6.40;2.70;;;;;;;6.17;85.90;100403.74;107198;1256;94388;-53
2023/01/14 07:12:52;;;;;;;6.50;2.20;;;;;;;6.19;85.70;100410.81;107203;1256;81077;-52
2023/01/14 07:15:32;;;;;;;4.60;2.10;;;;;;;6.21;85.67;100412.20;107245;1256;82628;-52
2023/01/14 07:18:09;;;;;;;5.40;2.40;;;;;;;6.21;85.53;100416.75;107238;1256;99500;-53
2023/01/14 07:20:51;;;;;;;5.20;2.30;;;;;;;6.22;85.54;100418.38;107254;1256;89575;-54
2023/01/14 07:23:31;;;;;;;7.90;2.30;;;;;;;6.25;85.61;100422.07;107160;1256;94870;-54
2023/01/14 07:26:07;;;;;;;5.90;2.30;;;;;;;6.27;85.59;100426.48;107208;1256;82021;-53
2023/01/14 07:28:47;;;;;;;6.70;3.20;;;;;;;6.32;85.47;100431.12;107247;1260;83602;-52
2023/01/14 07:31:31;;;;;;;5.10;2.20;;;;;;;6.33;85.48;100435.80;107284;1256;96576;-55
2023/01/14 07:34:15;;;;;;;4.40;2.20;;;;;;;6.35;85.43;100435.06;107164;1256;88965;-55
2023/01/14 07:37:01;;;;;;;7.50;2.20;;;;;;;6.41;85.29;100442.14;107193;1256;95458;-51
2023/01/14 07:39:43;;;;;;;4.80;2.40;;;;;;;6.47;85.35;100449.70;107200;1256;79491;-52
2023/01/14 07:42:28;;;;;;;5.30;2.30;;;;;;;6.55;85.14;100447.85;107204;1256;82835;-55
2023/01/14 07:45:08;;;;;;;5.70;2.10;;;;;;;6.60;85.17;100450.13;107166;1260;98850;-54
2023/01/14 07:47:44;;;;;;;6.90;2.40;;;;;;;6.65;85.15;100452.48;107200;1256;87141;-53
2023/01/14 07:50:31;;;;;;;7.00;2.20;;;;;;;6.72;84.98;100456.16;107211;1256;95915;-55
2023/01/14 07:53:12;;;;;;;5.60;2.40;;;;;;;6.73;84.90;100459.30;107172;1256;79773;-56
2023/01/14 07:55:55;;;;;;;8.40;2.60;;;;;;;6.73;84.67;100466.67;107268;1258;80887;-52
2023/01/14 07:58:40;;;;;;;7.70;2.40;;;;;;;6.69;84.59;100466.36;107132;1257;99352;-52
2023/01/14 08:01:19;;;;;;;5.50;2.80;;;;;;;6.62;84.45;100467.44;107192;1257;87647;-52
2023/01/14 08:03:55;;;;;;;6.60;2.70;;;;;;;6.63;84.39;100464.02;107056;1258;93525;-53
2023/01/14 08:06:31;;;;;;;7.20;2.90;;;;;;;6.65;84.36;100468.06;107255;1256;82445;-54
2023/01/14 08:09:09;;;;;;;5.20;2.40;;;;;;;6.86;84.14;100470.56;107304;1257;82558;-54
2023/01/14 08:11:50;;;;;;;6.20;2.50;;;;;;;7.51;83.78;100468.85;107345;1256;97696;-52
2023/01/14 08:14:38;;;;;;;6.30;3.00;;;;;;;7.98;83.18;100470.92;107217;1257;86498;-53
2023/01/14 08:17:15;;;;;;;6.20;2.70;;;;;;;8.02;82.96;100473.92;107314;1260;93328;-54
2023/01/14 08:19:55;;;;;;;7.70;2.70;;;;;;;7.98;82.94;100477.89;107320;1257;81296;-51
2023/01/14 08:22:39;;;;;;;6.80;2.60;;;;;;;7.96;82.53;100479.06;107311;1256;83256;-52
2023/01/14 08:25:19;;;;;;;7.60;2.70;;;;;;;8.02;82.45;100481.83;107345;1256;98361;-54
2023/01/14 08:27:58;;;;;;;6.10;2.70;;;;;;;8.12;82.32;100487.11;107303;1256;88885;-55
2023/01/14 08:30:37;;;;;;;6.00;2.50;;;;;;;8.18;82.27;100491.93;107339;1256;92251;-52
2023/01/14 08:33:24;;;;;;;4.40;2.20;;;;;;;8.31;82.08;100496.62;107321;1256;77359;-51
2023/01/14 08:36:06;;;;;;;6.70;2.20;;;;;;;8.37;81.86;100502.25;107305;1256;81346;-54
2023/01/14 08:38:48;;;;;;;6.20;2.20;;;;;;;8.31;81.28;100501.83;107305;1256;97682;-53
2023/01/14 08:41:30;;;;;;;6.60;2.10;;;;;;;8.18;81.22;100503.10;107312;1256;88681;-54
2023/01/14 08:44:09;;;;;;;5.90;2.70;;;;;;;8.13;81.39;100510.84;107187;1256;94483;-57
2023/01/14 08:46:52;;;;;;;7.20;2.60;;;;;;;8.07;80.95;100512.04;107317;1256;78971;-57
2023/01/14 08:49:36;;;;;;;6.40;2.20;;;;;;;8.03;81.07;100513.26;107341;1256;82395;-54
2023/01/14 08:52:18;;;;;;;5.10;2.30;;;;;;;7.96;80.93;100518.48;107290;1260;98659;-52
2023/01/14 08:54:57;;;;;;;7.80;3.00;;;;;;;7.95;81.09;100522.00;107297;1256;88419;-52
2023/01/14 08:57:36;;;;;;;7.60;2.60;;;;;;;8.00;81.01;100526.17;107320;1256;95349;-51
2023/01/14 09:00:20;;;;;;;7.40;2.50;;;;;;;8.02;80.89;100532.39;107294;1257;80083;-55
2023/01/14 09:03:03;;;;;;;4.10;2.30;;;;;;;8.02;80.59;100533.07;107364;1256;83079;-55
2023/01/14 09:05:43;;;;;;;4.50;2.60;;;;;;;7.98;80.21;100531.95;107375;1256;97770;-54
2023/01/14 09:17:46;;;;;;;6.90;3.00;;;;;;;8.17;80.47;100540.38;107258;1256;81491;-52
2023/01/14 09:20:36;;;;;;;6.10;2.30;;;;;;;8.23;80.63;100540.58;107316;1255;98960;-52
2023/01/14 09:23:17;;;;;;;5.50;2.30;;;;;;;8.35;80.76;100543.98;107305;1256;87671;-52
2023/01/14 09:26:00;;;;;;;5.50;2.40;;;;;;;8.47;80.67;100540.73;107322;1255;95398;-52
2023/01/14 09:28:47;;;;;;;4.80;2.10;;;;;;;8.58;80.55;100544.48;107301;1256;79186;-52
2023/01/14 09:31:24;;;;;;;6.70;2.80;;;;;;;8.65;80.49;100545.51;107294;1256;81055;-54
2023/01/14 09:34:08;;;;;;;5.80;2.40;;;;;;;8.69;80.52;100546.69;107313;1256;99721;-55
2023/01/14 09:36:50;;;;;;;5.60;2.30;;;;;;;8.72;79.93;100552.64;107280;1256;86943;-52
2023/01/14 09:39:32;;;;;;;5.90;2.40;;;;;;;8.71;80.01;100549.36;107302;1256;92480;-52
2023/01/14 09:42:16;;;;;;;6.40;2.20;;;;;;;8.74;80.19;100545.35;107322;1256;80916;-52
2023/01/14 09:44:59;;;;;;;6.90;2.40;;;;;;;8.80;80.23;100548.83;107303;1256;83092;-55
2023/01/14 09:47:41;;;;;;;5.00;2.10;;;;;;;8.79;79.95;100551.73;107368;1259;97397;-55
2023/01/14 09:50:24;;;;;;;6.00;2.40;;;;;;;8.65;80.00;100554.88;107388;1256;88963;-54
2023/01/14 09:53:14;;;;;;;7.50;2.70;;;;;;;8.51;79.86;100555.95;107366;1256;95421;-53
2023/01/14 09:55:58;;;;;;;6.10;3.40;;;;;;;8.37;79.55;100552.73;107408;1256;81389;-55
2023/01/14 09:58:43;;;;;;;6.50;2.70;;;;;;;8.26;79.18;100553.53;107448;1255;82812;-55
2023/01/14 10:01:22;;;;;;;;;;;;;;;8.17;79.44;100548.73;107412;1256;98388;-51
2023/01/14 10:04:18;;;;;;;7.50;3.00;;;;;;;8.42;79.66;100543.80;107220;1257;87697;-52
2023/01/14 10:06:59;;;;;;;6.20;2.50;;;;;;;9.54;79.59;100537.10;107354;1256;92267;-52
2023/01/14 10:09:45;;;;;;;8.20;2.80;;;;;;;10.25;78.68;100537.07;107393;1256;80529;-54
2023/01/14 10:12:27;;;;;;;7.70;3.00;;;;;;;10.19;77.17;100537.63;107392;1257;81948;-55
2023/01/14 10:15:29;;;;;;;5.00;2.80;;;;;;;9.85;76.95;100544.05;107449;1256;98669;-53
2023/01/14 10:18:22;;;;;;;6.20;2.70;;;;;;;9.46;76.66;100551.69;107390;1256;87506;-54
2023/01/14 10:21:16;;;;;;;7.30;3.00;;;;;;;9.26;76.80;100544.02;107392;1259;92557;-53
2023/01/14 10:23:55;;;;;;;5.50;3.00;;;;;;;9.04;76.73;100543.36;107418;1256;80083;-54
2023/01/14 10:26:39;;;;;;;8.30;4.00;;;;;;;8.93;77.30;100544.13;107427;1256;83801;-53
2023/01/14 10:29:19;;;;;;;7.30;3.20;;;;;;;8.92;77.39;100550.16;107330;1256;99302;-54
2023/01/14 10:32:03;;;;;;;5.60;3.20;;;;;;;9.04;77.69;100549.91;107416;1256;88841;-53
2023/01/14 10:34:47;;;;;;;8.50;3.80;;;;;;;9.24;77.53;100548.59;107385;1259;93285;-55
2023/01/14 10:37:29;;;;;;;6.00;3.00;;;;;;;9.43;77.88;100544.73;107420;1256;79491;-57
2023/01/14 10:40:23;;;;;;;7.90;3.40;;;;;;;9.59;77.57;100542.12;107514;1256;82136;-54
2023/01/14 10:43:19;;;;;;;5.90;3.10;;;;;;;9.49;77.01;100537.04;107113;1256;99062;-55
2023/01/14 10:45:53;;;;;;;5.20;2.70;;;;;;;9.36;76.90;100540.45;107441;1256;88322;-51
2023/01/14 10:48:47;;;;;;;7.00;3.50;;;;;;;9.33;77.00;100538.02;107237;1256;95238;-51
2023/01/14 10:51:38;;;;;;;6.90;2.80;;;;;;;9.30;76.93;100537.97;107383;1256;80976;-51
2023/01/14 10:54:20;;;;;;;6.10;3.40;;;;;;;9.28;76.66;100536.94;107381;1257;82420;-53
2023/01/14 10:57:00;;;;;;;7.00;2.80;;;;;;;9.28;77.21;100535.49;107417;1255;97947;-55
2023/01/14 10:59:54;;;;;;;9.20;2.90;;;;;;;9.27;77.16;100532.19;107401;1259;89019;-54
2023/01/14 11:02:45;;;;;;;5.90;2.70;;;;;;;9.28;77.26;100535.86;107356;1256;95033;-55
2023/01/14 11:05:34;;;;;;;78.10;11.70;;;;;;;9.28;77.14;100538.23;107268;1256;78753;-55
2023/01/14 11:08:31;;;;;;;9.00;2.90;;;;;;;9.35;77.42;100538.31;107369;1256;81575;-52
2023/01/14 11:11:11;;;;;;;6.70;3.30;;;;;;;9.44;77.33;100537.91;107416;1256;97300;-50
2023/01/14 11:13:53;;;;;;;31.90;7.00;;;;;;;9.46;76.56;100539.02;107375;1256;88646;-51
2023/01/14 11:16:36;;;;;;;5.70;2.90;;;;;;;9.43;76.78;100539.09;107427;1256;94889;-55
2023/01/14 11:19:29;;;;;;;26.00;4.60;;;;;;;9.36;76.15;100537.09;107369;1256;80876;-51
2023/01/14 11:22:13;;;;;;;5.10;2.60;;;;;;;9.28;76.52;100533.50;107391;1256;82852;-54
2023/01/14 11:25:00;;;;;;;6.80;3.10;;;;;;;9.25;76.42;100530.32;107396;1258;97358;-53
2023/01/14 11:27:39;;;;;;;5.90;2.90;;;;;;;9.21;76.55;100526.44;107441;1255;86179;-55
2023/01/14 11:30:28;;;;;;;9.50;2.80;;;;;;;9.24;76.87;100525.27;107473;1256;94222;-55
2023/01/14 11:33:20;;;;;;;5.00;2.50;;;;;;;9.28;76.67;100520.09;107202;1256;81230;-55
2023/01/14 11:36:01;;;;;;;6.80;2.40;;;;;;;9.28;76.66;100524.04;107388;1255;82312;-54
2023/01/14 11:38:47;;;;;;;6.30;2.40;;;;;;;9.21;76.30;100523.47;107200;1258;98938;-54
2023/01/14 11:41:40;;;;;;;6.60;3.20;;;;;;;9.12;76.08;100521.56;107415;1256;88466;-53
2023/01/14 11:44:36;;;;;;;6.90;2.70;;;;;;;9.11;76.58;100526.89;107363;1255;93998;-53
2023/01/14 11:47:25;;;;;;;6.60;2.40;;;;;;;9.17;76.32;100523.19;107344;1256;81136;-53
2023/01/14 11:50:20;;;;;;;5.20;2.30;;;;;;;9.20;76.39;100520.30;107383;1257;83013;-55
2023/01/14 11:53:16;;;;;;;6.10;2.40;;;;;;;9.25;76.20;100519.30;107403;1256;98167;-54
2023/01/14 11:56:05;;;;;;;7.20;2.80;;;;;;;9.21;76.33;100521.25;107412;1256;89129;-52
2023/01/14 11:58:40;;;;;;;8.40;2.70;;;;;;;9.25;76.18;100523.98;107402;1255;93576;-52
2023/01/14 12:01:26;;;;;;;7.60;3.10;;;;;;;9.27;76.18;100519.42;107396;1255;79236;-52
2023/01/14 12:04:16;;;;;;;7.50;3.00;;;;;;;9.28;76.27;100518.40;107430;1255;83323;-53
2023/01/14 12:07:01;;;;;;;9.40;3.00;;;;;;;9.31;76.47;100518.05;107363;1259;98521;-54
2023/01/14 12:09:55;;;;;;;5.60;2.70;;;;;;;9.37;76.50;100518.23;107487;1256;88416;-56
2023/01/14 12:18:48;;;;;;;7.90;2.70;;;;;;;9.20;76.25;100503.39;107420;1256;82474;-54
2023/01/14 12:21:34;;;;;;;7.10;3.50;;;;;;;9.22;76.23;100502.30;107354;1256;98837;-52
2023/01/14 12:24:18;;;;;;;10.30;4.00;;;;;;;9.19;76.25;100500.98;107332;1256;88658;-52
2023/01/14 12:27:03;;;;;;;4.90;2.90;;;;;;;9.17;76.10;100496.45;107346;1259;93383;-52
2023/01/14 12:29:44;;;;;;;7.50;2.70;;;;;;;9.08;75.45;100491.73;107342;1256;82322;-53
2023/01/14 12:32:27;;;;;;;7.50;2.40;;;;;;;9.03;75.83;100491.44;107396;1256;82548;-55
2023/01/14 12:35:08;;;;;;;7.50;2.90;;;;;;;9.04;75.55;100496.15;107346;1255;99360;-54
2023/01/14 12:37:52;;;;;;;6.50;3.10;;;;;;;9.00;75.75;100498.89;107218;1256;90704;-62
2023/01/14 12:46:46;;;;;;;5.50;3.00;;;;;;;9.02;75.85;100501.91;107153;1256;81761;-52
2023/01/14 12:49:29;;;;;;;8.40;3.70;;;;;;;9.01;75.87;100501.52;107420;1259;98760;-52
2023/01/14 12:52:09;;;;;;;5.40;3.00;;;;;;;8.97;76.06;100496.92;107374;1257;86511;-56
2023/01/14 12:54:55;;;;;;;6.50;2.90;;;;;;;8.94;75.96;100496.81;107395;1256;95274;-53
2023/01/14 12:57:32;;;;;;;7.80;3.30;;;;;;;8.95;76.02;100493.64;107375;1256;82184;-54
2023/01/14 13:00:22;;;;;;;6.10;2.90;;;;;;;8.96;75.96;100491.27;107491;1259;81189;-51
2023/01/14 13:03:09;;;;;;;5.50;2.60;;;;;;;8.96;75.94;100494.73;107392;1256;98576;-52
2023/01/14 13:05:45;;;;;;;7.20;2.60;;;;;;;8.92;75.63;100491.02;107369;1256;87641;-52
2023/01/14 13:08:38;;;;;;;4.80;2.70;;;;;;;8.84;75.61;100494.13;107327;1256;95930;-52
2023/01/14 13:11:21;;;;;;;6.40;3.00;;;;;;;8.77;75.70;100495.78;107335;1256;81099;-54
2023/01/14 13:14:04;;;;;;;5.80;2.30;;;;;;;8.74;75.89;100493.80;107404;1256;83444;-54
2023/01/14 13:16:49;;;;;;;5.50;2.60;;;;;;;8.72;75.78;100494.59;107345;1256;99199;-52
2023/01/14 13:22:51;;;;;;;8.20;3.90;;;;;;;8.72;76.12;100503.70;103848;1294;601260;-51
2023/01/14 13:25:45;;;;;;;6.50;2.90;;;;;;;8.71;76.13;100505.87;106662;1266;81925;-51